sensor_id;sensor_type;location;lat;lon;timestamp;temperature;humidity
15713;DHT22;7957;51.608;6.916;2023-05-14T00:01:05;14.90;1.00
15713;DHT22;7957;51.608;6.916;2023-05-14T00:03:32;14.90;1.00
15713;DHT22;7957;51.608;6.916;2023-05-14T00:05:59;14.90;1.00
15713;DHT22;7957;51.608;6.916;2023-05-14T00:08:26;14.90;1.00
15713;DHT22;7957;51.608;6.916;2023-05-14T00:10:53;14.80;1.00
15713;DHT22;7957;51.608;6.916;2023-05-14T00:13:21;14.80;1.00
15713;DHT22;7957;51.608;6.916;2023-05-14T00:15:48;14.80;1.00
15713;DHT22;7957;51.608;6.916;2023-05-14T00:18:15;14.80;12.70
15713;DHT22;7957;51.608;6.916;2023-05-14T00:20:42;14.80;43.80
15713;DHT22;7957;51.608;6.916;2023-05-14T00:23:09;14.70;99.90
15713;DHT22;7957;51.608;6.916;2023-05-14T00:25:36;14.70;99.90
15713;DHT22;7957;51.608;6.916;2023-05-14T00:28:03;14.70;99.90
15713;DHT22;7957;51.608;6.916;2023-05-14T00:30:32;14.60;99.90
15713;DHT22;7957;51.608;6.916;2023-05-14T00:32:59;14.60;99.90
15713;DHT22;7957;51.608;6.916;2023-05-14T00:35:26;14.60;99.90
15713;DHT22;7957;51.608;6.916;2023-05-14T00:37:53;14.60;99.90
15713;DHT22;7957;51.608;6.916;2023-05-14T00:40:22;14.50;1.00
15713;DHT22;7957;51.608;6.916;2023-05-14T00:42:51;14.50;1.00
15713;DHT22;7957;51.608;6.916;2023-05-14T00:45:18;14.50;1.00
15713;DHT22;7957;51.608;6.916;2023-05-14T00:47:47;14.50;1.00
15713;DHT22;7957;51.608;6.916;2023-05-14T00:50:23;14.50;1.00
15713;DHT22;7957;51.608;6.916;2023-05-14T00:52:50;14.40;1.00
15713;DHT22;7957;51.608;6.916;2023-05-14T00:55:18;14.40;1.00
15713;DHT22;7957;51.608;6.916;2023-05-14T00:57:45;14.40;1.00
15713;DHT22;7957;51.608;6.916;2023-05-14T01:00:13;14.40;12.90
15713;DHT22;7957;51.608;6.916;2023-05-14T01:02:40;14.40;97.40
15713;DHT22;7957;51.608;6.916;2023-05-14T01:05:08;14.30;99.90
15713;DHT22;7957;51.608;6.916;2023-05-14T01:07:42;14.30;99.90
15713;DHT22;7957;51.608;6.916;2023-05-14T01:10:16;14.30;99.90
15713;DHT22;7957;51.608;6.916;2023-05-14T01:12:51;14.20;99.90
15713;DHT22;7957;51.608;6.916;2023-05-14T01:15:24;14.20;99.90
15713;DHT22;7957;51.608;6.916;2023-05-14T01:17:53;14.20;99.90
15713;DHT22;7957;51.608;6.916;2023-05-14T01:20:22;14.10;1.00
15713;DHT22;7957;51.608;6.916;2023-05-14T01:22:51;14.10;1.00
15713;DHT22;7957;51.608;6.916;2023-05-14T01:25:18;14.10;1.00
15713;DHT22;7957;51.608;6.916;2023-05-14T01:27:49;14.10;1.00
15713;DHT22;7957;51.608;6.916;2023-05-14T01:30:31;14.10;1.00
15713;DHT22;7957;51.608;6.916;2023-05-14T01:33:02;14.00;1.00
15713;DHT22;7957;51.608;6.916;2023-05-14T01:35:31;14.00;1.00
15713;DHT22;7957;51.608;6.916;2023-05-14T01:38:02;14.00;1.00
15713;DHT22;7957;51.608;6.916;2023-05-14T01:40:31;14.00;1.00
15713;DHT22;7957;51.608;6.916;2023-05-14T01:42:58;14.00;2.60
15713;DHT22;7957;51.608;6.916;2023-05-14T01:45:34;14.00;24.50
15713;DHT22;7957;51.608;6.916;2023-05-14T01:48:02;13.90;54.40
15713;DHT22;7957;51.608;6.916;2023-05-14T01:50:29;13.80;77.80
15713;DHT22;7957;51.608;6.916;2023-05-14T01:52:56;13.90;99.90
15713;DHT22;7957;51.608;6.916;2023-05-14T01:55:25;13.80;99.90
15713;DHT22;7957;51.608;6.916;2023-05-14T01:57:52;13.80;99.90
15713;DHT22;7957;51.608;6.916;2023-05-14T02:00:22;13.80;99.90
15713;DHT22;7957;51.608;6.916;2023-05-14T02:02:49;13.80;99.90
15713;DHT22;7957;51.608;6.916;2023-05-14T02:05:16;13.70;99.90
15713;DHT22;7957;51.608;6.916;2023-05-14T02:07:43;13.70;99.90
15713;DHT22;7957;51.608;6.916;2023-05-14T02:10:11;13.70;99.90
15713;DHT22;7957;51.608;6.916;2023-05-14T02:12:39;13.60;99.90
15713;DHT22;7957;51.608;6.916;2023-05-14T02:15:07;13.60;99.90
15713;DHT22;7957;51.608;6.916;2023-05-14T02:17:35;13.60;99.90
15713;DHT22;7957;51.608;6.916;2023-05-14T02:20:02;13.60;99.90
15713;DHT22;7957;51.608;6.916;2023-05-14T02:22:29;13.60;99.90
15713;DHT22;7957;51.608;6.916;2023-05-14T02:24:56;13.50;99.90
15713;DHT22;7957;51.608;6.916;2023-05-14T02:27:23;13.50;99.90
15713;DHT22;7957;51.608;6.916;2023-05-14T02:29:53;13.50;99.90
15713;DHT22;7957;51.608;6.916;2023-05-14T02:32:21;13.50;99.90
15713;DHT22;7957;51.608;6.916;2023-05-14T02:34:48;13.50;99.90
15713;DHT22;7957;51.608;6.916;2023-05-14T02:37:15;13.40;99.90
15713;DHT22;7957;51.608;6.916;2023-05-14T02:39:42;13.40;99.90
15713;DHT22;7957;51.608;6.916;2023-05-14T02:42:09;13.40;99.90
15713;DHT22;7957;51.608;6.916;2023-05-14T02:44:36;13.40;99.90
15713;DHT22;7957;51.608;6.916;2023-05-14T02:47:05;13.40;99.90
15713;DHT22;7957;51.608;6.916;2023-05-14T02:49:32;13.30;99.90
15713;DHT22;7957;51.608;6.916;2023-05-14T02:51:59;13.30;99.90
15713;DHT22;7957;51.608;6.916;2023-05-14T02:54:26;13.30;99.90
15713;DHT22;7957;51.608;6.916;2023-05-14T02:56:53;13.30;99.90
15713;DHT22;7957;51.608;6.916;2023-05-14T02:59:20;13.30;99.90
15713;DHT22;7957;51.608;6.916;2023-05-14T03:01:48;13.20;99.90
15713;DHT22;7957;51.608;6.916;2023-05-14T03:04:16;13.20;99.90
15713;DHT22;7957;51.608;6.916;2023-05-14T03:06:43;13.10;99.90
15713;DHT22;7957;51.608;6.916;2023-05-14T03:09:10;13.10;99.90
15713;DHT22;7957;51.608;6.916;2023-05-14T03:11:37;13.20;99.90
15713;DHT22;7957;51.608;6.916;2023-05-14T03:14:04;13.10;99.90
15713;DHT22;7957;51.608;6.916;2023-05-14T03:16:31;13.10;99.90
15713;DHT22;7957;51.608;6.916;2023-05-14T03:18:58;13.10;99.90
15713;DHT22;7957;51.608;6.916;2023-05-14T03:21:27;13.00;99.90
15713;DHT22;7957;51.608;6.916;2023-05-14T03:23:54;13.00;99.90
15713;DHT22;7957;51.608;6.916;2023-05-14T03:26:21;13.00;99.90
15713;DHT22;7957;51.608;6.916;2023-05-14T03:28:49;13.00;99.90
15713;DHT22;7957;51.608;6.916;2023-05-14T03:31:16;13.00;99.90
15713;DHT22;7957;51.608;6.916;2023-05-14T03:33:43;13.00;99.90
15713;DHT22;7957;51.608;6.916;2023-05-14T03:36:10;12.90;99.90
15713;DHT22;7957;51.608;6.916;2023-05-14T03:38:39;12.90;99.90
15713;DHT22;7957;51.608;6.916;2023-05-14T03:41:06;12.90;99.90
15713;DHT22;7957;51.608;6.916;2023-05-14T03:43:33;12.90;99.90
15713;DHT22;7957;51.608;6.916;2023-05-14T03:46:00;12.90;99.90
15713;DHT22;7957;51.608;6.916;2023-05-14T03:48:26;12.90;99.90
15713;DHT22;7957;51.608;6.916;2023-05-14T03:50:53;12.80;99.90
15713;DHT22;7957;51.608;6.916;2023-05-14T03:53:20;12.80;99.90
15713;DHT22;7957;51.608;6.916;2023-05-14T03:55:49;12.80;99.90
15713;DHT22;7957;51.608;6.916;2023-05-14T03:58:16;12.80;99.90
15713;DHT22;7957;51.608;6.916;2023-05-14T04:00:43;12.80;99.90
15713;DHT22;7957;51.608;6.916;2023-05-14T04:03:10;12.70;99.90
15713;DHT22;7957;51.608;6.916;2023-05-14T04:05:37;12.70;99.90
15713;DHT22;7957;51.608;6.916;2023-05-14T04:08:04;12.70;99.90
15713;DHT22;7957;51.608;6.916;2023-05-14T04:10:31;12.70;99.90
15713;DHT22;7957;51.608;6.916;2023-05-14T04:12:59;12.70;99.90
15713;DHT22;7957;51.608;6.916;2023-05-14T04:15:26;12.70;99.90
15713;DHT22;7957;51.608;6.916;2023-05-14T04:17:53;12.70;99.90
15713;DHT22;7957;51.608;6.916;2023-05-14T04:20:20;12.70;99.90
15713;DHT22;7957;51.608;6.916;2023-05-14T04:22:47;12.70;99.90
15713;DHT22;7957;51.608;6.916;2023-05-14T04:25:14;12.70;99.90
15713;DHT22;7957;51.608;6.916;2023-05-14T04:27:42;12.70;99.90
15713;DHT22;7957;51.608;6.916;2023-05-14T04:30:12;12.60;99.90
15713;DHT22;7957;51.608;6.916;2023-05-14T04:32:40;12.70;99.90
15713;DHT22;7957;51.608;6.916;2023-05-14T04:35:08;12.70;99.90
15713;DHT22;7957;51.608;6.916;2023-05-14T04:37:35;12.70;99.90
15713;DHT22;7957;51.608;6.916;2023-05-14T04:40:02;12.70;99.90
15713;DHT22;7957;51.608;6.916;2023-05-14T04:42:29;12.70;99.90
15713;DHT22;7957;51.608;6.916;2023-05-14T04:44:56;12.70;99.90
15713;DHT22;7957;51.608;6.916;2023-05-14T04:47:24;12.70;99.90
15713;DHT22;7957;51.608;6.916;2023-05-14T04:49:52;12.70;99.90
15713;DHT22;7957;51.608;6.916;2023-05-14T04:52:19;12.70;99.90
15713;DHT22;7957;51.608;6.916;2023-05-14T04:54:46;12.70;99.90
15713;DHT22;7957;51.608;6.916;2023-05-14T04:57:13;12.70;99.90
15713;DHT22;7957;51.608;6.916;2023-05-14T04:59:40;12.80;99.90
15713;DHT22;7957;51.608;6.916;2023-05-14T05:02:08;12.70;99.90
15713;DHT22;7957;51.608;6.916;2023-05-14T05:04:37;12.70;99.90
15713;DHT22;7957;51.608;6.916;2023-05-14T05:07:04;12.80;99.90
15713;DHT22;7957;51.608;6.916;2023-05-14T05:09:42;12.80;99.90
15713;DHT22;7957;51.608;6.916;2023-05-14T05:12:26;12.80;99.90
15713;DHT22;7957;51.608;6.916;2023-05-14T05:14:54;12.80;99.90
15713;DHT22;7957;51.608;6.916;2023-05-14T05:17:21;12.90;99.90
15713;DHT22;7957;51.608;6.916;2023-05-14T05:19:51;12.80;99.90
15713;DHT22;7957;51.608;6.916;2023-05-14T05:22:18;12.90;99.90
15713;DHT22;7957;51.608;6.916;2023-05-14T05:24:45;12.90;99.90
15713;DHT22;7957;51.608;6.916;2023-05-14T05:27:12;12.90;99.90
15713;DHT22;7957;51.608;6.916;2023-05-14T05:29:39;12.90;99.90
15713;DHT22;7957;51.608;6.916;2023-05-14T05:32:07;13.00;99.90
15713;DHT22;7957;51.608;6.916;2023-05-14T05:34:34;13.00;99.90
15713;DHT22;7957;51.608;6.916;2023-05-14T05:37:03;13.10;99.90
15713;DHT22;7957;51.608;6.916;2023-05-14T05:39:30;13.10;99.90
15713;DHT22;7957;51.608;6.916;2023-05-14T05:41:59;13.10;99.90
15713;DHT22;7957;51.608;6.916;2023-05-14T05:44:26;13.20;99.90
15713;DHT22;7957;51.608;6.916;2023-05-14T05:46:53;13.20;99.90
15713;DHT22;7957;51.608;6.916;2023-05-14T05:49:21;13.20;99.90
15713;DHT22;7957;51.608;6.916;2023-05-14T05:51:49;13.20;99.90
15713;DHT22;7957;51.608;6.916;2023-05-14T05:54:18;13.20;99.90
15713;DHT22;7957;51.608;6.916;2023-05-14T05:56:45;13.20;99.90
15713;DHT22;7957;51.608;6.916;2023-05-14T05:59:13;13.20;99.90
15713;DHT22;7957;51.608;6.916;2023-05-14T06:01:39;13.30;99.90
15713;DHT22;7957;51.608;6.916;2023-05-14T06:04:08;13.30;99.90
15713;DHT22;7957;51.608;6.916;2023-05-14T06:06:35;13.30;99.90
15713;DHT22;7957;51.608;6.916;2023-05-14T06:09:01;13.30;99.90
15713;DHT22;7957;51.608;6.916;2023-05-14T06:11:31;13.30;99.90
15713;DHT22;7957;51.608;6.916;2023-05-14T06:13:58;13.30;99.90
15713;DHT22;7957;51.608;6.916;2023-05-14T06:16:25;13.40;99.90
15713;DHT22;7957;51.608;6.916;2023-05-14T06:18:52;13.40;99.90
15713;DHT22;7957;51.608;6.916;2023-05-14T06:21:19;13.40;99.90
15713;DHT22;7957;51.608;6.916;2023-05-14T06:23:46;13.50;99.90
15713;DHT22;7957;51.608;6.916;2023-05-14T06:26:13;13.50;99.90
15713;DHT22;7957;51.608;6.916;2023-05-14T06:28:42;13.60;99.90
15713;DHT22;7957;51.608;6.916;2023-05-14T06:31:09;13.60;99.90
15713;DHT22;7957;51.608;6.916;2023-05-14T06:33:36;13.60;99.90
15713;DHT22;7957;51.608;6.916;2023-05-14T06:36:04;13.60;99.90
15713;DHT22;7957;51.608;6.916;2023-05-14T06:38:32;13.60;99.90
15713;DHT22;7957;51.608;6.916;2023-05-14T06:40:59;13.60;99.90
15713;DHT22;7957;51.608;6.916;2023-05-14T06:43:29;13.70;99.90
15713;DHT22;7957;51.608;6.916;2023-05-14T06:45:57;13.70;99.90
15713;DHT22;7957;51.608;6.916;2023-05-14T06:48:25;13.70;99.90
15713;DHT22;7957;51.608;6.916;2023-05-14T06:50:54;13.70;99.90
15713;DHT22;7957;51.608;6.916;2023-05-14T06:53:21;13.70;99.90
15713;DHT22;7957;51.608;6.916;2023-05-14T06:55:48;13.70;99.90
15713;DHT22;7957;51.608;6.916;2023-05-14T06:58:15;13.70;99.90
15713;DHT22;7957;51.608;6.916;2023-05-14T07:00:42;13.80;99.90
15713;DHT22;7957;51.608;6.916;2023-05-14T07:03:11;13.80;99.90
15713;DHT22;7957;51.608;6.916;2023-05-14T07:05:38;13.90;99.90
15713;DHT22;7957;51.608;6.916;2023-05-14T07:08:05;14.00;99.90
15713;DHT22;7957;51.608;6.916;2023-05-14T07:10:32;14.10;99.90
15713;DHT22;7957;51.608;6.916;2023-05-14T07:12:59;14.20;99.90
15713;DHT22;7957;51.608;6.916;2023-05-14T07:15:27;14.20;99.90
15713;DHT22;7957;51.608;6.916;2023-05-14T07:17:54;14.40;99.90
15713;DHT22;7957;51.608;6.916;2023-05-14T07:20:24;14.50;99.90
15713;DHT22;7957;51.608;6.916;2023-05-14T07:22:51;14.60;99.90
15713;DHT22;7957;51.608;6.916;2023-05-14T07:25:18;14.80;99.90
15713;DHT22;7957;51.608;6.916;2023-05-14T07:27:45;15.00;99.90
15713;DHT22;7957;51.608;6.916;2023-05-14T07:30:13;15.20;99.90
15713;DHT22;7957;51.608;6.916;2023-05-14T07:32:40;15.40;99.90
15713;DHT22;7957;51.608;6.916;2023-05-14T07:35:08;15.60;99.90
15713;DHT22;7957;51.608;6.916;2023-05-14T07:37:37;15.70;99.90
15713;DHT22;7957;51.608;6.916;2023-05-14T07:40:05;15.90;99.90
15713;DHT22;7957;51.608;6.916;2023-05-14T07:42:35;16.00;99.90
15713;DHT22;7957;51.608;6.916;2023-05-14T07:45:03;16.20;99.90
15713;DHT22;7957;51.608;6.916;2023-05-14T07:47:31;16.30;99.90
15713;DHT22;7957;51.608;6.916;2023-05-14T07:49:59;16.40;99.90
15713;DHT22;7957;51.608;6.916;2023-05-14T07:52:28;16.50;99.90
15713;DHT22;7957;51.608;6.916;2023-05-14T07:54:57;16.60;99.90
15713;DHT22;7957;51.608;6.916;2023-05-14T07:57:24;16.70;99.90
15713;DHT22;7957;51.608;6.916;2023-05-14T07:59:52;16.80;99.90
15713;DHT22;7957;51.608;6.916;2023-05-14T08:02:19;16.80;99.90
15713;DHT22;7957;51.608;6.916;2023-05-14T08:04:46;16.90;99.90
15713;DHT22;7957;51.608;6.916;2023-05-14T08:07:13;17.00;99.90
15713;DHT22;7957;51.608;6.916;2023-05-14T08:09:40;17.00;99.90
15713;DHT22;7957;51.608;6.916;2023-05-14T08:12:08;17.10;99.90
15713;DHT22;7957;51.608;6.916;2023-05-14T08:14:35;17.10;1.00
15713;DHT22;7957;51.608;6.916;2023-05-14T08:17:03;17.20;1.00
15713;DHT22;7957;51.608;6.916;2023-05-14T08:19:30;17.20;1.00
15713;DHT22;7957;51.608;6.916;2023-05-14T08:21:57;17.30;99.90
15713;DHT22;7957;51.608;6.916;2023-05-14T08:24:24;17.40;1.00
15713;DHT22;7957;51.608;6.916;2023-05-14T08:26:51;17.40;1.00
15713;DHT22;7957;51.608;6.916;2023-05-14T08:29:19;17.50;99.90
15713;DHT22;7957;51.608;6.916;2023-05-14T08:31:46;17.60;99.90
15713;DHT22;7957;51.608;6.916;2023-05-14T08:34:13;17.70;25.60
15713;DHT22;7957;51.608;6.916;2023-05-14T08:36:41;17.70;1.00
15713;DHT22;7957;51.608;6.916;2023-05-14T08:39:08;17.80;1.00
15713;DHT22;7957;51.608;6.916;2023-05-14T08:41:34;17.90;1.00
15713;DHT22;7957;51.608;6.916;2023-05-14T08:44:09;18.00;99.90
15713;DHT22;7957;51.608;6.916;2023-05-14T08:46:39;18.00;99.90
15713;DHT22;7957;51.608;6.916;2023-05-14T08:49:14;18.10;10.50
15713;DHT22;7957;51.608;6.916;2023-05-14T08:51:43;18.10;1.00
15713;DHT22;7957;51.608;6.916;2023-05-14T08:54:11;18.30;1.00
15713;DHT22;7957;51.608;6.916;2023-05-14T08:56:43;18.30;1.00
15713;DHT22;7957;51.608;6.916;2023-05-14T08:59:10;18.40;1.00
15713;DHT22;7957;51.608;6.916;2023-05-14T09:01:42;18.50;99.90
15713;DHT22;7957;51.608;6.916;2023-05-14T09:04:10;18.60;99.90
15713;DHT22;7957;51.608;6.916;2023-05-14T09:06:39;18.70;99.90
15713;DHT22;7957;51.608;6.916;2023-05-14T09:09:08;18.70;85.00
15713;DHT22;7957;51.608;6.916;2023-05-14T09:11:40;18.80;1.00
15713;DHT22;7957;51.608;6.916;2023-05-14T09:14:07;18.90;1.00
15713;DHT22;7957;51.608;6.916;2023-05-14T09:16:34;19.00;1.00
15713;DHT22;7957;51.608;6.916;2023-05-14T09:19:03;19.20;1.00
15713;DHT22;7957;51.608;6.916;2023-05-14T09:21:31;19.30;1.00
15713;DHT22;7957;51.608;6.916;2023-05-14T09:23:59;19.30;1.00
15713;DHT22;7957;51.608;6.916;2023-05-14T09:26:26;19.50;99.90
15713;DHT22;7957;51.608;6.916;2023-05-14T09:28:57;19.60;99.90
15713;DHT22;7957;51.608;6.916;2023-05-14T09:31:26;19.80;99.90
15713;DHT22;7957;51.608;6.916;2023-05-14T09:33:56;19.90;99.90
15713;DHT22;7957;51.608;6.916;2023-05-14T09:36:24;20.00;99.90
15713;DHT22;7957;51.608;6.916;2023-05-14T09:38:52;20.10;91.70
15713;DHT22;7957;51.608;6.916;2023-05-14T09:41:19;20.30;25.60
15713;DHT22;7957;51.608;6.916;2023-05-14T09:43:47;20.40;1.00
15713;DHT22;7957;51.608;6.916;2023-05-14T09:46:15;20.50;1.00
15713;DHT22;7957;51.608;6.916;2023-05-14T09:48:42;20.70;1.00
15713;DHT22;7957;51.608;6.916;2023-05-14T09:51:09;20.80;1.00
15713;DHT22;7957;51.608;6.916;2023-05-14T09:53:38;21.00;1.00
15713;DHT22;7957;51.608;6.916;2023-05-14T09:56:05;21.20;1.00
15713;DHT22;7957;51.608;6.916;2023-05-14T09:58:33;21.30;1.00
15713;DHT22;7957;51.608;6.916;2023-05-14T10:01:00;21.40;1.00
15713;DHT22;7957;51.608;6.916;2023-05-14T10:03:29;21.50;1.00
15713;DHT22;7957;51.608;6.916;2023-05-14T10:06:00;21.70;1.00
15713;DHT22;7957;51.608;6.916;2023-05-14T10:08:33;21.80;99.90
15713;DHT22;7957;51.608;6.916;2023-05-14T10:11:05;22.00;99.90
15713;DHT22;7957;51.608;6.916;2023-05-14T10:13:36;22.10;99.90
15713;DHT22;7957;51.608;6.916;2023-05-14T10:16:09;22.30;99.90
15713;DHT22;7957;51.608;6.916;2023-05-14T10:18:40;22.40;99.90
15713;DHT22;7957;51.608;6.916;2023-05-14T10:21:09;22.50;99.90
15713;DHT22;7957;51.608;6.916;2023-05-14T10:23:37;22.60;99.90
15713;DHT22;7957;51.608;6.916;2023-05-14T10:26:07;22.70;91.60
15713;DHT22;7957;51.608;6.916;2023-05-14T10:28:34;22.90;43.20
15713;DHT22;7957;51.608;6.916;2023-05-14T10:31:01;23.10;15.40
15713;DHT22;7957;51.608;6.916;2023-05-14T10:33:28;23.30;1.00
15713;DHT22;7957;51.608;6.916;2023-05-14T10:35:59;23.50;1.00
15713;DHT22;7957;51.608;6.916;2023-05-14T10:38:27;23.70;1.00
15713;DHT22;7957;51.608;6.916;2023-05-14T10:40:56;23.80;1.00
15713;DHT22;7957;51.608;6.916;2023-05-14T10:43:27;23.90;1.00
15713;DHT22;7957;51.608;6.916;2023-05-14T10:45:55;24.10;1.00
15713;DHT22;7957;51.608;6.916;2023-05-14T10:48:23;24.30;1.00
15713;DHT22;7957;51.608;6.916;2023-05-14T10:50:50;24.40;1.00
15713;DHT22;7957;51.608;6.916;2023-05-14T10:53:17;24.40;1.00
15713;DHT22;7957;51.608;6.916;2023-05-14T10:55:45;24.50;1.00
15713;DHT22;7957;51.608;6.916;2023-05-14T10:58:12;24.60;1.00
15713;DHT22;7957;51.608;6.916;2023-05-14T11:00:41;24.80;1.00
15713;DHT22;7957;51.608;6.916;2023-05-14T11:03:13;25.00;1.00
15713;DHT22;7957;51.608;6.916;2023-05-14T11:05:40;25.30;99.90
15713;DHT22;7957;51.608;6.916;2023-05-14T11:08:07;25.40;99.90
15713;DHT22;7957;51.608;6.916;2023-05-14T11:10:35;25.50;99.90
15713;DHT22;7957;51.608;6.916;2023-05-14T11:13:03;25.60;99.90
15713;DHT22;7957;51.608;6.916;2023-05-14T11:15:30;25.60;99.90
15713;DHT22;7957;51.608;6.916;2023-05-14T11:17:58;25.50;99.90
15713;DHT22;7957;51.608;6.916;2023-05-14T11:20:25;25.50;99.90
15713;DHT22;7957;51.608;6.916;2023-05-14T11:22:52;25.70;99.90
15713;DHT22;7957;51.608;6.916;2023-05-14T11:25:20;25.90;99.90
15713;DHT22;7957;51.608;6.916;2023-05-14T11:27:50;26.10;99.90
15713;DHT22;7957;51.608;6.916;2023-05-14T11:30:20;26.30;65.10
15713;DHT22;7957;51.608;6.916;2023-05-14T11:32:48;26.50;27.50
15713;DHT22;7957;51.608;6.916;2023-05-14T11:35:17;26.80;1.00
15713;DHT22;7957;51.608;6.916;2023-05-14T11:37:50;26.80;1.00
15713;DHT22;7957;51.608;6.916;2023-05-14T11:40:18;27.00;1.00
15713;DHT22;7957;51.608;6.916;2023-05-14T11:42:45;27.20;1.00
15713;DHT22;7957;51.608;6.916;2023-05-14T11:45:12;27.30;1.00
15713;DHT22;7957;51.608;6.916;2023-05-14T11:47:40;27.20;1.00
15713;DHT22;7957;51.608;6.916;2023-05-14T11:50:08;27.20;1.00
15713;DHT22;7957;51.608;6.916;2023-05-14T11:52:39;27.30;1.00
15713;DHT22;7957;51.608;6.916;2023-05-14T11:55:10;27.30;1.00
15713;DHT22;7957;51.608;6.916;2023-05-14T11:57:37;27.50;1.00
15713;DHT22;7957;51.608;6.916;2023-05-14T12:00:08;27.70;1.00
15713;DHT22;7957;51.608;6.916;2023-05-14T12:02:37;27.80;1.00
15713;DHT22;7957;51.608;6.916;2023-05-14T12:05:06;28.00;1.00
15713;DHT22;7957;51.608;6.916;2023-05-14T12:07:35;28.10;1.00
15713;DHT22;7957;51.608;6.916;2023-05-14T12:10:04;28.40;99.90
15713;DHT22;7957;51.608;6.916;2023-05-14T12:12:34;28.50;99.90
15713;DHT22;7957;51.608;6.916;2023-05-14T12:15:01;28.50;99.90
15713;DHT22;7957;51.608;6.916;2023-05-14T12:17:36;28.30;99.90
15713;DHT22;7957;51.608;6.916;2023-05-14T12:20:07;28.20;99.90
15713;DHT22;7957;51.608;6.916;2023-05-14T12:22:35;28.00;99.90
15713;DHT22;7957;51.608;6.916;2023-05-14T12:25:08;27.70;99.90
15713;DHT22;7957;51.608;6.916;2023-05-14T12:27:36;27.40;99.90
15713;DHT22;7957;51.608;6.916;2023-05-14T12:30:04;27.10;99.90
15713;DHT22;7957;51.608;6.916;2023-05-14T12:32:33;26.90;99.90
15713;DHT22;7957;51.608;6.916;2023-05-14T12:35:00;26.70;99.90
15713;DHT22;7957;51.608;6.916;2023-05-14T12:37:27;26.60;99.90
15713;DHT22;7957;51.608;6.916;2023-05-14T12:39:54;26.50;88.30
15713;DHT22;7957;51.608;6.916;2023-05-14T12:42:23;26.70;76.60
15713;DHT22;7957;51.608;6.916;2023-05-14T12:44:49;26.80;63.50
15713;DHT22;7957;51.608;6.916;2023-05-14T12:47:16;27.00;53.70
15713;DHT22;7957;51.608;6.916;2023-05-14T12:49:43;27.00;30.10
15713;DHT22;7957;51.608;6.916;2023-05-14T12:52:10;26.90;8.00
15713;DHT22;7957;51.608;6.916;2023-05-14T12:54:37;26.80;1.00
15713;DHT22;7957;51.608;6.916;2023-05-14T12:57:07;26.80;1.00
15713;DHT22;7957;51.608;6.916;2023-05-14T12:59:36;26.80;1.00
15713;DHT22;7957;51.608;6.916;2023-05-14T13:02:03;26.90;1.00
15713;DHT22;7957;51.608;6.916;2023-05-14T13:04:30;26.90;1.00
15713;DHT22;7957;51.608;6.916;2023-05-14T13:06:58;26.90;1.00
15713;DHT22;7957;51.608;6.916;2023-05-14T13:09:25;26.80;1.00
15713;DHT22;7957;51.608;6.916;2023-05-14T13:11:53;26.90;1.00
15713;DHT22;7957;51.608;6.916;2023-05-14T13:14:19;26.90;1.00
15713;DHT22;7957;51.608;6.916;2023-05-14T13:16:48;27.10;1.00
15713;DHT22;7957;51.608;6.916;2023-05-14T13:19:15;27.10;1.00
15713;DHT22;7957;51.608;6.916;2023-05-14T13:21:42;27.00;1.00
15713;DHT22;7957;51.608;6.916;2023-05-14T13:24:09;26.90;1.00
15713;DHT22;7957;51.608;6.916;2023-05-14T13:26:36;26.90;1.00
15713;DHT22;7957;51.608;6.916;2023-05-14T13:29:03;26.70;1.00
15713;DHT22;7957;51.608;6.916;2023-05-14T13:31:30;26.50;1.00
15713;DHT22;7957;51.608;6.916;2023-05-14T13:33:58;26.40;1.00
15713;DHT22;7957;51.608;6.916;2023-05-14T13:36:26;26.40;1.00
15713;DHT22;7957;51.608;6.916;2023-05-14T13:38:55;26.40;1.00
15713;DHT22;7957;51.608;6.916;2023-05-14T13:41:22;26.30;1.00
15713;DHT22;7957;51.608;6.916;2023-05-14T13:43:50;26.30;1.00
15713;DHT22;7957;51.608;6.916;2023-05-14T13:46:17;26.20;1.00
15713;DHT22;7957;51.608;6.916;2023-05-14T13:48:44;26.20;1.00
15713;DHT22;7957;51.608;6.916;2023-05-14T13:51:13;26.10;1.00
15713;DHT22;7957;51.608;6.916;2023-05-14T13:53:40;26.10;1.00
15713;DHT22;7957;51.608;6.916;2023-05-14T13:56:07;26.20;1.00
15713;DHT22;7957;51.608;6.916;2023-05-14T13:58:34;26.20;1.00
15713;DHT22;7957;51.608;6.916;2023-05-14T14:01:01;26.20;1.00
15713;DHT22;7957;51.608;6.916;2023-05-14T14:03:28;26.20;1.00
15713;DHT22;7957;51.608;6.916;2023-05-14T14:05:55;26.10;1.00
15713;DHT22;7957;51.608;6.916;2023-05-14T14:08:23;26.10;1.00
15713;DHT22;7957;51.608;6.916;2023-05-14T14:10:50;25.90;1.00
15713;DHT22;7957;51.608;6.916;2023-05-14T14:13:19;25.90;1.00
15713;DHT22;7957;51.608;6.916;2023-05-14T14:15:47;25.90;1.00
15713;DHT22;7957;51.608;6.916;2023-05-14T14:18:14;25.80;1.00
15713;DHT22;7957;51.608;6.916;2023-05-14T14:20:41;25.70;1.00
15713;DHT22;7957;51.608;6.916;2023-05-14T14:23:08;25.60;1.00
15713;DHT22;7957;51.608;6.916;2023-05-14T14:25:36;25.50;1.00
15713;DHT22;7957;51.608;6.916;2023-05-14T14:28:03;25.50;1.00
15713;DHT22;7957;51.608;6.916;2023-05-14T14:30:31;25.40;1.00
15713;DHT22;7957;51.608;6.916;2023-05-14T14:32:59;25.30;1.00
15713;DHT22;7957;51.608;6.916;2023-05-14T14:35:25;25.30;1.00
15713;DHT22;7957;51.608;6.916;2023-05-14T14:37:53;25.30;1.00
15713;DHT22;7957;51.608;6.916;2023-05-14T14:40:20;25.30;1.00
15713;DHT22;7957;51.608;6.916;2023-05-14T14:42:49;25.30;1.00
15713;DHT22;7957;51.608;6.916;2023-05-14T14:45:16;25.20;1.00
15713;DHT22;7957;51.608;6.916;2023-05-14T14:47:45;25.10;1.00
15713;DHT22;7957;51.608;6.916;2023-05-14T14:50:12;25.10;1.00
15713;DHT22;7957;51.608;6.916;2023-05-14T14:52:40;25.10;1.00
15713;DHT22;7957;51.608;6.916;2023-05-14T14:55:09;25.10;1.00
15713;DHT22;7957;51.608;6.916;2023-05-14T14:57:36;24.90;1.00
15713;DHT22;7957;51.608;6.916;2023-05-14T15:00:06;24.90;1.00
15713;DHT22;7957;51.608;6.916;2023-05-14T15:02:33;24.80;99.90
15713;DHT22;7957;51.608;6.916;2023-05-14T15:05:03;24.80;99.90
15713;DHT22;7957;51.608;6.916;2023-05-14T15:07:30;24.80;99.90
15713;DHT22;7957;51.608;6.916;2023-05-14T15:09:57;24.80;99.90
15713;DHT22;7957;51.608;6.916;2023-05-14T15:12:24;24.70;99.90
15713;DHT22;7957;51.608;6.916;2023-05-14T15:14:51;24.60;99.90
15713;DHT22;7957;51.608;6.916;2023-05-14T15:17:19;24.60;99.90
15713;DHT22;7957;51.608;6.916;2023-05-14T15:19:46;24.60;99.90
15713;DHT22;7957;51.608;6.916;2023-05-14T15:22:13;24.50;99.90
15713;DHT22;7957;51.608;6.916;2023-05-14T15:24:40;24.50;99.90
15713;DHT22;7957;51.608;6.916;2023-05-14T15:27:07;24.40;99.90
15713;DHT22;7957;51.608;6.916;2023-05-14T15:29:34;24.30;99.90
15713;DHT22;7957;51.608;6.916;2023-05-14T15:32:02;24.30;99.90
15713;DHT22;7957;51.608;6.916;2023-05-14T15:34:30;24.30;99.90
15713;DHT22;7957;51.608;6.916;2023-05-14T15:36:57;24.20;99.90
15713;DHT22;7957;51.608;6.916;2023-05-14T15:39:24;24.20;99.90
15713;DHT22;7957;51.608;6.916;2023-05-14T15:41:51;24.10;1.00
15713;DHT22;7957;51.608;6.916;2023-05-14T15:44:17;24.10;1.00
15713;DHT22;7957;51.608;6.916;2023-05-14T15:46:44;24.00;1.00
15713;DHT22;7957;51.608;6.916;2023-05-14T15:49:11;24.00;1.00
15713;DHT22;7957;51.608;6.916;2023-05-14T15:51:40;24.00;1.00
15713;DHT22;7957;51.608;6.916;2023-05-14T15:54:07;23.90;1.00
15713;DHT22;7957;51.608;6.916;2023-05-14T15:56:34;23.80;1.00